createdAt,value
2018-08-31T00:01:56.050Z,68.31
2018-08-31T00:04:36.873Z,68.31
2018-08-31T00:07:16.400Z,68.52
2018-08-31T00:12:14.245Z,68.71
2018-08-31T00:14:42.410Z,68.63
2018-08-31T00:17:10.603Z,69.08
2018-08-31T00:19:38.782Z,69.25
2018-08-31T00:22:07.259Z,69.16
2018-08-31T00:24:46.845Z,69.33
2018-08-31T00:27:26.195Z,69.23
2018-08-31T00:30:05.800Z,68.89
2018-08-31T00:33:11.583Z,68.84
2018-08-31T00:36:50.507Z,69.11
2018-08-31T00:39:33.536Z,69.31
2018-08-31T00:43:17.951Z,69.22
2018-08-31T00:45:46.123Z,69.63
2018-08-31T00:48:14.310Z,69.57
2018-08-31T00:50:42.481Z,69.27
2018-08-31T00:53:10.706Z,69.98
2018-08-31T00:55:38.904Z,70.12
2018-08-31T00:58:07.080Z,70.09
2018-08-31T01:00:35.247Z,69.99
2018-08-31T01:03:03.439Z,70.39
2018-08-31T01:05:31.632Z,70.44
2018-08-31T01:07:59.828Z,70.05
2018-08-31T01:10:28.044Z,69.90
2018-08-31T01:12:56.279Z,70.01
2018-08-31T01:15:24.462Z,69.97
2018-08-31T01:17:52.647Z,70.11
2018-08-31T01:20:20.839Z,70.28
2018-08-31T01:22:49.040Z,70.47
2018-08-31T01:25:17.239Z,70.25
2018-08-31T01:27:45.434Z,70.75
2018-08-31T01:30:13.644Z,70.86
2018-08-31T01:32:41.831Z,71.10
2018-08-31T01:35:10.017Z,71.42
2018-08-31T01:37:38.194Z,71.71
2018-08-31T01:40:06.580Z,71.55
2018-08-31T01:42:34.884Z,71.23
2018-08-31T01:45:03.102Z,71.41
2018-08-31T01:47:31.300Z,71.01
2018-08-31T01:49:59.482Z,70.76
2018-08-31T01:52:27.663Z,71.09
2018-08-31T01:54:55.907Z,71.43
2018-08-31T01:57:24.104Z,71.17
2018-08-31T01:59:52.356Z,71.30
2018-08-31T02:02:22.542Z,71.13
2018-08-31T02:04:50.767Z,70.69
2018-08-31T02:07:18.953Z,70.94
2018-08-31T02:09:47.139Z,70.94
2018-08-31T02:12:15.355Z,70.82
2018-08-31T02:14:43.552Z,71.04
2018-08-31T02:17:11.743Z,71.08
2018-08-31T02:19:39.929Z,70.90
2018-08-31T02:22:08.141Z,70.74
2018-08-31T02:24:36.336Z,70.78
2018-08-31T02:27:04.534Z,70.70
2018-08-31T02:29:32.714Z,71.11
2018-08-31T02:32:00.914Z,71.21
2018-08-31T02:34:29.111Z,70.94
2018-08-31T02:36:57.316Z,70.99
2018-08-31T02:39:25.564Z,70.94
2018-08-31T02:41:53.667Z,70.98
2018-08-31T02:44:21.850Z,70.89
2018-08-31T02:46:50.036Z,71.16
2018-08-31T02:49:18.208Z,71.29
2018-08-31T02:51:46.378Z,71.42
2018-08-31T02:54:14.587Z,71.54
2018-08-31T02:56:42.763Z,71.54
2018-08-31T02:59:10.976Z,71.40
2018-08-31T03:01:39.144Z,71.63
2018-08-31T03:04:07.330Z,71.44
2018-08-31T03:06:35.502Z,71.66
2018-08-31T03:09:05.192Z,71.68
2018-08-31T03:11:33.424Z,71.77
2018-08-31T03:14:01.604Z,71.77
2018-08-31T03:16:29.800Z,71.77
2018-08-31T03:18:57.991Z,71.65
2018-08-31T03:21:26.249Z,71.90
2018-08-31T03:23:54.408Z,72.02
2018-08-31T03:26:22.597Z,71.99
2018-08-31T03:28:50.789Z,71.67
2018-08-31T03:31:19.056Z,72.08
2018-08-31T03:33:47.257Z,71.85
2018-08-31T03:36:15.422Z,71.78
2018-08-31T03:38:43.608Z,71.70
2018-08-31T03:41:11.818Z,71.73
2018-08-31T03:43:40.012Z,71.69
2018-08-31T03:46:08.203Z,71.63
2018-08-31T03:48:36.411Z,71.73
2018-08-31T03:51:04.629Z,71.68
2018-08-31T03:53:32.823Z,71.21
2018-08-31T03:56:01.016Z,71.44
2018-08-31T03:58:29.186Z,71.61
2018-08-31T04:00:57.364Z,71.54
2018-08-31T04:03:25.560Z,71.67
2018-08-31T04:05:53.735Z,71.58
2018-08-31T04:08:22.349Z,71.39
2018-08-31T04:10:50.529Z,71.57
2018-08-31T04:13:18.705Z,71.46
2018-08-31T04:15:46.883Z,71.41
2018-08-31T04:18:15.073Z,71.30
2018-08-31T04:20:43.292Z,71.44
2018-08-31T04:23:11.476Z,71.55
2018-08-31T04:25:39.656Z,71.83
2018-08-31T04:28:07.853Z,72.02
2018-08-31T04:30:36.033Z,71.66
2018-08-31T04:33:04.227Z,71.62
2018-08-31T04:35:32.433Z,71.65
2018-08-31T04:38:00.626Z,71.55
2018-08-31T04:40:28.811Z,71.41
2018-08-31T04:42:57.097Z,71.30
2018-08-31T04:45:25.188Z,71.46
2018-08-31T04:47:53.351Z,71.18
2018-08-31T04:50:21.593Z,71.17
2018-08-31T04:52:49.725Z,71.21
2018-08-31T04:55:17.910Z,71.28
2018-08-31T04:57:46.126Z,71.35
2018-08-31T05:00:15.196Z,71.44
2018-08-31T05:02:43.363Z,71.32
2018-08-31T05:05:11.527Z,71.23
2018-08-31T05:07:39.693Z,71.14
2018-08-31T05:10:07.885Z,70.84
2018-08-31T05:12:36.143Z,70.28
2018-08-31T05:15:04.396Z,70.25
2018-08-31T05:17:32.567Z,70.10
2018-08-31T05:20:00.730Z,70.03
2018-08-31T05:22:28.993Z,69.44
2018-08-31T05:24:57.150Z,69.86
2018-08-31T05:27:25.345Z,69.25
2018-08-31T05:29:53.504Z,68.84
2018-08-31T05:32:21.673Z,68.78
2018-08-31T05:34:49.891Z,68.61
2018-08-31T05:37:18.048Z,68.74
2018-08-31T05:39:46.206Z,68.40
2018-08-31T05:42:14.383Z,68.58
2018-08-31T05:44:42.555Z,67.56
2018-08-31T05:47:10.727Z,67.83
2018-08-31T05:49:38.912Z,68.26
2018-08-31T05:52:07.127Z,68.27
2018-08-31T05:54:35.295Z,67.58
2018-08-31T05:57:03.468Z,67.33
2018-08-31T05:59:31.642Z,67.32
2018-08-31T06:01:59.876Z,66.82
2018-08-31T06:04:27.999Z,66.25
2018-08-31T06:06:56.175Z,66.26
2018-08-31T06:09:24.335Z,66.01
2018-08-31T06:11:52.568Z,65.61
2018-08-31T06:14:20.687Z,65.72
2018-08-31T06:16:48.863Z,64.48
2018-08-31T06:19:17.030Z,64.46
2018-08-31T06:21:45.211Z,64.62
2018-08-31T06:24:13.379Z,64.72
2018-08-31T06:26:41.569Z,64.42
2018-08-31T06:29:10.043Z,64.38
2018-08-31T06:31:38.221Z,64.12
2018-08-31T06:34:06.625Z,63.73
2018-08-31T06:36:34.816Z,63.61
2018-08-31T06:39:03.068Z,63.23
2018-08-31T06:41:31.250Z,62.90
2018-08-31T06:43:59.406Z,63.43
2018-08-31T06:46:27.582Z,63.27
2018-08-31T06:48:55.759Z,62.49
2018-08-31T06:51:23.959Z,62.67
2018-08-31T06:53:52.152Z,62.35
2018-08-31T06:56:20.354Z,63.21
2018-08-31T06:58:48.536Z,63.22
2018-08-31T07:01:16.718Z,62.82
2018-08-31T07:03:44.958Z,63.38
2018-08-31T07:06:13.084Z,63.16
2018-08-31T07:08:41.264Z,62.14
2018-08-31T07:11:09.455Z,61.97
2018-08-31T07:13:37.656Z,61.96
2018-08-31T07:16:05.856Z,61.52
2018-08-31T07:18:34.048Z,61.69
2018-08-31T07:21:02.246Z,61.49
2018-08-31T07:23:30.625Z,61.28
2018-08-31T07:25:58.816Z,61.31
2018-08-31T07:28:27.015Z,61.65
2018-08-31T07:30:55.195Z,60.76
2018-08-31T07:33:23.383Z,60.95
2018-08-31T07:35:51.766Z,61.61
2018-08-31T07:38:19.896Z,61.21
2018-08-31T07:40:48.363Z,60.91
2018-08-31T07:43:16.551Z,60.97
2018-08-31T07:45:44.726Z,60.81
2018-08-31T07:48:12.908Z,60.47
2018-08-31T07:50:41.115Z,60.37
2018-08-31T07:53:09.401Z,60.21
2018-08-31T07:55:37.567Z,60.00
2018-08-31T07:58:06.132Z,60.13
2018-08-31T08:00:34.304Z,59.84
2018-08-31T08:03:02.483Z,59.60
2018-08-31T08:05:30.696Z,59.02
2018-08-31T08:07:59.758Z,59.06
2018-08-31T08:10:27.958Z,57.44
2018-08-31T08:12:56.146Z,57.17
2018-08-31T08:15:24.336Z,57.49
2018-08-31T08:17:52.533Z,56.92
2018-08-31T08:20:20.763Z,57.00
2018-08-31T08:22:48.995Z,58.04
2018-08-31T08:25:17.202Z,57.44
2018-08-31T08:27:45.688Z,56.73
2018-08-31T08:30:13.891Z,57.04
2018-08-31T08:32:42.099Z,57.35
2018-08-31T08:35:10.289Z,57.25
2018-08-31T08:37:38.471Z,56.92
2018-08-31T08:40:06.663Z,56.52
2018-08-31T08:42:34.989Z,56.00
2018-08-31T08:45:03.111Z,55.58
2018-08-31T08:47:31.294Z,55.53
2018-08-31T08:49:59.471Z,55.30
2018-08-31T08:52:27.693Z,53.41
2018-08-31T08:54:56.049Z,53.62
2018-08-31T08:57:24.237Z,53.76
2018-08-31T08:59:52.403Z,53.57
2018-08-31T09:02:20.574Z,53.11
2018-08-31T09:04:48.746Z,52.67
2018-08-31T09:07:18.142Z,52.20
2018-08-31T09:09:47.295Z,52.02
2018-08-31T09:12:15.522Z,52.82
2018-08-31T09:14:43.844Z,52.00
2018-08-31T09:17:12.029Z,52.02
2018-08-31T09:19:40.494Z,50.79
2018-08-31T09:22:08.678Z,50.00
2018-08-31T09:24:36.863Z,48.71
2018-08-31T09:27:05.179Z,50.27
2018-08-31T09:29:33.338Z,49.40
2018-08-31T09:32:05.689Z,49.93
2018-08-31T09:34:33.864Z,49.97
2018-08-31T09:37:02.040Z,49.18
2018-08-31T09:39:30.198Z,48.40
2018-08-31T09:41:58.375Z,48.40
2018-08-31T09:44:26.562Z,48.26
2018-08-31T09:46:54.744Z,45.84
2018-08-31T09:49:22.906Z,45.82
2018-08-31T09:51:51.096Z,46.95
2018-08-31T09:54:19.256Z,47.87
2018-08-31T09:56:47.439Z,45.65
2018-08-31T09:59:15.619Z,45.02
2018-08-31T10:01:43.783Z,44.76
2018-08-31T10:04:11.951Z,43.97
2018-08-31T10:06:40.122Z,44.77
2018-08-31T10:09:09.309Z,44.40
2018-08-31T10:11:37.545Z,43.73
2018-08-31T10:14:05.707Z,42.56
2018-08-31T10:16:33.893Z,42.72
2018-08-31T10:19:02.125Z,40.97
2018-08-31T10:21:30.294Z,41.08
2018-08-31T10:23:58.469Z,41.15
2018-08-31T10:26:26.649Z,39.72
2018-08-31T10:28:54.855Z,39.86
2018-08-31T10:31:23.027Z,40.66
2018-08-31T10:33:51.195Z,42.33
2018-08-31T10:36:19.366Z,41.20
2018-08-31T10:38:47.562Z,39.83
2018-08-31T10:41:15.759Z,40.53
2018-08-31T10:43:43.934Z,39.85
2018-08-31T10:46:12.179Z,39.66
2018-08-31T10:48:40.351Z,39.66
2018-08-31T10:51:08.695Z,41.05
2018-08-31T10:53:36.908Z,40.86
2018-08-31T10:56:05.071Z,41.67
2018-08-31T10:58:33.251Z,42.01
2018-08-31T11:01:01.694Z,41.86
2018-08-31T11:03:29.876Z,41.35
2018-08-31T11:05:58.052Z,41.72
2018-08-31T11:08:26.224Z,40.04
2018-08-31T11:10:54.411Z,39.06
2018-08-31T11:13:22.620Z,38.30
2018-08-31T11:15:50.820Z,36.98
2018-08-31T11:18:19.006Z,34.95
2018-08-31T11:20:47.191Z,35.47
2018-08-31T11:23:15.378Z,34.83
2018-08-31T11:25:43.571Z,35.24
2018-08-31T11:28:11.769Z,36.13
2018-08-31T11:30:39.940Z,37.15
2018-08-31T11:33:08.127Z,36.81
2018-08-31T11:35:36.324Z,35.79
2018-08-31T11:38:04.546Z,34.74
2018-08-31T11:40:32.718Z,33.50
2018-08-31T11:43:00.899Z,34.08
2018-08-31T11:45:29.085Z,33.90
2018-08-31T11:47:57.265Z,33.57
2018-08-31T11:50:25.452Z,33.00
2018-08-31T11:52:53.640Z,32.49
2018-08-31T11:55:21.884Z,31.27
2018-08-31T11:57:49.998Z,31.32
2018-08-31T12:00:19.027Z,30.40
2018-08-31T12:02:47.221Z,31.52
2018-08-31T12:05:15.383Z,29.24
2018-08-31T12:07:43.634Z,31.03
2018-08-31T12:10:11.770Z,33.76
2018-08-31T12:12:39.968Z,36.73
2018-08-31T12:15:08.168Z,37.91
2018-08-31T12:17:36.355Z,38.79
2018-08-31T12:20:04.548Z,39.02
2018-08-31T12:22:32.735Z,39.82
2018-08-31T12:25:00.916Z,39.88
2018-08-31T12:27:29.098Z,39.94
2018-08-31T12:29:57.291Z,38.99
2018-08-31T12:32:25.451Z,38.71
2018-08-31T12:34:53.609Z,39.25
2018-08-31T12:37:22.013Z,38.93
2018-08-31T12:39:50.384Z,38.76
2018-08-31T12:42:18.558Z,38.45
2018-08-31T12:44:46.776Z,37.89
2018-08-31T12:47:14.944Z,37.97
2018-08-31T12:49:43.121Z,38.16
2018-08-31T12:52:11.307Z,37.83
2018-08-31T12:54:39.488Z,35.96
2018-08-31T12:57:07.709Z,35.42
2018-08-31T12:59:35.928Z,35.42
2018-08-31T13:02:04.266Z,34.61
2018-08-31T13:04:32.439Z,34.29
2018-08-31T13:07:00.684Z,34.29
2018-08-31T13:09:28.814Z,35.00
2018-08-31T13:11:56.994Z,34.94
2018-08-31T13:14:25.191Z,33.50
2018-08-31T13:16:53.397Z,32.99
2018-08-31T13:19:21.665Z,33.33
2018-08-31T13:21:49.855Z,33.36
2018-08-31T13:24:18.034Z,32.44
2018-08-31T13:26:46.276Z,33.59
2018-08-31T13:29:14.472Z,33.47
2018-08-31T13:31:42.735Z,32.79
2018-08-31T13:34:10.898Z,33.37
2018-08-31T13:36:40.051Z,34.21
2018-08-31T13:39:08.922Z,33.52
2018-08-31T13:41:37.390Z,34.23
2018-08-31T13:44:05.794Z,33.55
2018-08-31T13:46:34.984Z,33.26
2018-08-31T13:49:03.596Z,36.74
2018-08-31T13:51:31.991Z,37.49
2018-08-31T13:54:00.276Z,37.39
2018-08-31T13:56:28.537Z,37.42
2018-08-31T13:58:57.015Z,37.81
2018-08-31T14:01:26.312Z,37.68
2018-08-31T14:03:54.516Z,37.66
2018-08-31T14:06:23.599Z,38.29
2018-08-31T14:08:52.071Z,38.52
2018-08-31T14:11:20.739Z,37.28
2018-08-31T14:13:49.511Z,38.47
2018-08-31T14:16:17.795Z,37.55
2018-08-31T14:18:48.109Z,37.44
2018-08-31T14:21:16.424Z,38.21
2018-08-31T14:23:45.546Z,37.23
2018-08-31T14:26:13.879Z,36.62
2018-08-31T14:28:42.851Z,37.07
2018-08-31T14:31:11.100Z,36.79
2018-08-31T14:33:40.056Z,36.11
2018-08-31T14:36:08.328Z,35.88
2018-08-31T14:38:36.684Z,36.43
2018-08-31T14:41:04.882Z,36.92
2018-08-31T14:43:33.142Z,36.16
2018-08-31T14:46:01.435Z,36.80
2018-08-31T14:48:29.643Z,36.03
2018-08-31T14:50:57.875Z,36.36
2018-08-31T14:53:26.220Z,35.38
2018-08-31T14:55:54.463Z,36.16
2018-08-31T14:58:22.708Z,35.82
2018-08-31T15:00:52.523Z,36.06
2018-08-31T15:03:22.065Z,36.14
2018-08-31T15:05:50.412Z,36.56
2018-08-31T15:08:18.562Z,36.07
2018-08-31T15:10:46.788Z,36.56
2018-08-31T15:13:15.107Z,36.63
2018-08-31T15:15:44.077Z,36.45
2018-08-31T15:18:13.514Z,36.95
2018-08-31T15:20:41.818Z,37.81
2018-08-31T15:23:10.006Z,37.37
2018-08-31T15:25:38.303Z,37.54
2018-08-31T15:28:06.445Z,37.75
2018-08-31T15:30:34.623Z,38.89
2018-08-31T15:33:03.113Z,39.18
2018-08-31T15:35:31.692Z,39.56
2018-08-31T15:38:00.576Z,38.95
2018-08-31T15:40:28.853Z,39.14
2018-08-31T15:42:57.777Z,39.42
2018-08-31T15:45:26.303Z,39.90
2018-08-31T15:47:55.219Z,39.72
2018-08-31T15:50:23.508Z,39.70
2018-08-31T15:52:51.602Z,39.52
2018-08-31T15:55:19.811Z,40.30
2018-08-31T15:57:47.951Z,40.07
2018-08-31T16:00:16.177Z,40.68
2018-08-31T16:02:44.348Z,39.95
2018-08-31T16:05:12.518Z,40.24
2018-08-31T16:07:40.698Z,40.66
2018-08-31T16:10:09.389Z,40.85
2018-08-31T16:12:37.610Z,40.39
2018-08-31T16:15:06.096Z,40.83
2018-08-31T16:17:34.864Z,39.89
2018-08-31T16:20:03.059Z,39.58
2018-08-31T16:22:31.240Z,40.12
2018-08-31T16:24:59.477Z,40.63
2018-08-31T16:27:27.652Z,40.86
2018-08-31T16:29:55.846Z,41.46
2018-08-31T16:32:24.082Z,41.42
2018-08-31T16:34:52.272Z,41.99
2018-08-31T16:37:20.446Z,41.42
2018-08-31T16:39:48.665Z,41.38
2018-08-31T16:42:16.868Z,42.41
2018-08-31T16:44:45.091Z,41.45
2018-08-31T16:47:13.281Z,42.17
2018-08-31T16:49:41.431Z,42.37
2018-08-31T16:52:09.691Z,42.39
2018-08-31T16:54:37.859Z,42.01
2018-08-31T16:57:06.328Z,42.52
2018-08-31T16:59:34.802Z,42.33
2018-08-31T17:02:03.149Z,42.67
2018-08-31T17:04:31.339Z,41.25
2018-08-31T17:06:59.496Z,42.25
2018-08-31T17:09:27.671Z,41.26
2018-08-31T17:11:55.847Z,42.15
2018-08-31T17:14:24.021Z,41.74
2018-08-31T17:16:52.220Z,41.66
2018-08-31T17:19:20.334Z,41.76
2018-08-31T17:21:48.502Z,41.91
2018-08-31T17:24:16.682Z,41.76
2018-08-31T17:26:50.092Z,42.80
2018-08-31T17:29:23.532Z,42.04
2018-08-31T17:31:57.075Z,42.92
2018-08-31T17:34:30.603Z,43.28
2018-08-31T17:37:04.017Z,43.07
2018-08-31T17:39:32.178Z,43.18
2018-08-31T17:42:00.349Z,43.04
2018-08-31T17:44:28.627Z,43.17
2018-08-31T17:46:56.795Z,43.34
2018-08-31T17:49:25.840Z,43.28
2018-08-31T17:51:54.016Z,44.00
2018-08-31T17:54:22.210Z,44.03
2018-08-31T17:56:50.398Z,44.58
2018-08-31T17:59:18.651Z,44.80
2018-08-31T18:01:46.905Z,45.14
2018-08-31T18:04:15.313Z,45.20
2018-08-31T18:06:43.348Z,44.94
2018-08-31T18:09:11.547Z,44.72
2018-08-31T18:11:39.702Z,44.54
2018-08-31T18:14:07.871Z,45.19
2018-08-31T18:16:36.235Z,44.97
2018-08-31T18:19:04.232Z,45.09
2018-08-31T18:21:32.403Z,45.10
2018-08-31T18:24:00.597Z,44.70
2018-08-31T18:26:28.783Z,45.23
2018-08-31T18:28:56.959Z,45.19
2018-08-31T18:31:25.147Z,45.26
2018-08-31T18:33:53.323Z,45.72
2018-08-31T18:36:21.500Z,45.96
2018-08-31T18:38:49.682Z,46.06
2018-08-31T18:41:17.863Z,46.97
2018-08-31T18:43:46.050Z,47.10
2018-08-31T18:46:14.268Z,47.06
2018-08-31T18:48:42.467Z,47.68
2018-08-31T18:51:10.771Z,47.93
2018-08-31T18:53:39.020Z,48.10
2018-08-31T18:56:08.485Z,48.06
2018-08-31T18:58:36.700Z,47.95
2018-08-31T19:01:04.892Z,48.38
2018-08-31T19:03:33.059Z,48.92
2018-08-31T19:06:01.243Z,48.63
2018-08-31T19:08:29.415Z,48.65
2018-08-31T19:10:57.582Z,48.89
2018-08-31T19:13:25.768Z,49.62
2018-08-31T19:15:53.964Z,49.15
2018-08-31T19:18:22.172Z,50.10
2018-08-31T19:20:50.371Z,50.18
2018-08-31T19:23:18.590Z,50.65
2018-08-31T19:25:46.775Z,50.54
2018-08-31T19:28:14.966Z,50.18
2018-08-31T19:30:43.162Z,50.77
2018-08-31T19:33:11.346Z,50.53
2018-08-31T19:35:39.536Z,51.22
2018-08-31T19:38:07.747Z,50.60
2018-08-31T19:40:35.955Z,51.53
2018-08-31T19:43:04.132Z,51.66
2018-08-31T19:45:32.318Z,52.31
2018-08-31T19:48:00.585Z,52.70
2018-08-31T19:50:28.801Z,53.22
2018-08-31T19:52:57.333Z,54.00
2018-08-31T19:55:25.803Z,54.23
2018-08-31T19:57:53.948Z,54.67
2018-08-31T20:00:22.334Z,54.31
2018-08-31T20:02:50.515Z,54.32
2018-08-31T20:05:18.764Z,54.73
2018-08-31T20:07:46.943Z,54.51
2018-08-31T20:10:15.110Z,54.59
2018-08-31T20:12:43.308Z,53.93
2018-08-31T20:15:11.510Z,53.12
2018-08-31T20:17:39.688Z,53.07
2018-08-31T20:20:07.899Z,53.59
2018-08-31T20:22:36.087Z,53.70
2018-08-31T20:25:04.442Z,53.08
2018-08-31T20:27:32.636Z,53.25
2018-08-31T20:30:00.822Z,53.17
2018-08-31T20:32:29.054Z,53.48
2018-08-31T20:34:57.255Z,53.74
2018-08-31T20:37:25.440Z,54.06
2018-08-31T20:39:53.673Z,54.51
2018-08-31T20:42:21.844Z,54.76
2018-08-31T20:44:50.023Z,54.88
2018-08-31T20:47:18.280Z,54.98
2018-08-31T20:49:46.403Z,55.09
2018-08-31T20:52:14.610Z,55.41
2018-08-31T20:54:42.804Z,55.53
2018-08-31T20:57:10.988Z,55.98
2018-08-31T20:59:39.167Z,55.96
2018-08-31T21:02:07.368Z,56.32
2018-08-31T21:04:35.532Z,56.18
2018-08-31T21:07:03.727Z,56.30
2018-08-31T21:09:31.903Z,56.59
2018-08-31T21:12:00.091Z,56.80
2018-08-31T21:14:28.351Z,56.86
2018-08-31T21:16:56.516Z,57.01
2018-08-31T21:19:25.086Z,57.29
2018-08-31T21:21:53.277Z,57.15
2018-08-31T21:24:21.457Z,57.18
2018-08-31T21:26:49.627Z,57.30
2018-08-31T21:29:17.798Z,56.91
2018-08-31T21:31:45.999Z,56.81
2018-08-31T21:34:14.164Z,56.88
2018-08-31T21:36:42.450Z,56.69
2018-08-31T21:39:10.783Z,56.87
2018-08-31T21:41:39.229Z,56.81
2018-08-31T21:44:07.459Z,56.62
2018-08-31T21:46:35.650Z,56.01
2018-08-31T21:49:03.940Z,55.94
2018-08-31T21:51:32.109Z,55.49
2018-08-31T21:54:00.307Z,55.35
2018-08-31T21:56:28.513Z,55.22
2018-08-31T21:58:56.711Z,55.50
2018-08-31T22:01:30.195Z,56.13
2018-08-31T22:03:58.379Z,55.77
2018-08-31T22:06:26.583Z,55.45
2018-08-31T22:08:54.784Z,54.98
2018-08-31T22:11:22.957Z,55.08
2018-08-31T22:13:51.146Z,55.60
2018-08-31T22:16:19.346Z,55.10
2018-08-31T22:18:47.521Z,55.09
2018-08-31T22:21:15.711Z,55.32
2018-08-31T22:23:43.895Z,55.28
2018-08-31T22:26:12.315Z,55.30
2018-08-31T22:28:40.510Z,54.85
2018-08-31T22:31:08.680Z,55.12
2018-08-31T22:33:36.914Z,55.07
2018-08-31T22:36:05.091Z,54.75
2018-08-31T22:38:33.283Z,55.02
2018-08-31T22:41:01.447Z,54.96
2018-08-31T22:43:35.063Z,55.79
2018-08-31T22:46:03.162Z,56.28
2018-08-31T22:48:31.360Z,56.62
2018-08-31T22:50:59.563Z,56.98
2018-08-31T22:53:27.811Z,57.09
2018-08-31T22:55:56.026Z,57.39
2018-08-31T22:58:24.224Z,57.58
2018-08-31T23:00:52.395Z,57.76
2018-08-31T23:03:20.583Z,58.86
2018-08-31T23:05:48.771Z,58.47
2018-08-31T23:08:17.605Z,58.40
2018-08-31T23:10:45.784Z,58.25
2018-08-31T23:13:14.105Z,58.16
2018-08-31T23:15:42.206Z,58.33
2018-08-31T23:18:10.384Z,58.56
2018-08-31T23:20:38.571Z,58.59
2018-08-31T23:23:11.999Z,58.71
2018-08-31T23:25:45.475Z,58.59
2018-08-31T23:28:13.651Z,58.81
2018-08-31T23:30:41.822Z,59.17
